sensor_id;sensor_type;location;lat;lon;timestamp;pressure;altitude;pressure_sealevel;temperature;humidity
46087;BME280;31824;49.648;8.640;2023-01-25T00:01:05;102196.06;;;1.61;100.00
46087;BME280;31824;49.648;8.640;2023-01-25T00:04:07;102191.13;;;1.63;100.00
46087;BME280;31824;49.648;8.640;2023-01-25T00:07:09;102186.91;;;1.63;100.00
46087;BME280;31824;49.648;8.640;2023-01-25T00:10:12;102186.63;;;1.56;100.00
46087;BME280;31824;49.648;8.640;2023-01-25T00:13:14;102186.84;;;1.58;100.00
46087;BME280;31824;49.648;8.640;2023-01-25T00:16:16;102187.59;;;1.57;100.00
46087;BME280;31824;49.648;8.640;2023-01-25T00:19:18;102175.81;;;1.59;100.00
46087;BME280;31824;49.648;8.640;2023-01-25T00:22:20;102183.59;;;1.64;100.00
46087;BME280;31824;49.648;8.640;2023-01-25T00:25:23;102180.31;;;1.65;100.00
46087;BME280;31824;49.648;8.640;2023-01-25T00:28:25;102161.50;;;1.66;100.00
46087;BME280;31824;49.648;8.640;2023-01-25T00:31:36;102160.56;;;1.66;100.00
46087;BME280;31824;49.648;8.640;2023-01-25T00:34:45;102173.50;;;1.66;100.00
46087;BME280;31824;49.648;8.640;2023-01-25T00:37:48;102175.34;;;1.61;100.00
46087;BME280;31824;49.648;8.640;2023-01-25T00:40:56;102178.88;;;1.62;100.00
46087;BME280;31824;49.648;8.640;2023-01-25T00:43:58;102172.97;;;1.57;100.00
46087;BME280;31824;49.648;8.640;2023-01-25T00:47:00;102171.50;;;1.48;100.00
46087;BME280;31824;49.648;8.640;2023-01-25T00:50:03;102165.69;;;1.60;100.00
46087;BME280;31824;49.648;8.640;2023-01-25T00:53:05;102176.22;;;1.50;100.00
46087;BME280;31824;49.648;8.640;2023-01-25T00:56:08;102161.81;;;1.47;100.00
46087;BME280;31824;49.648;8.640;2023-01-25T00:59:10;102163.94;;;1.44;100.00
46087;BME280;31824;49.648;8.640;2023-01-25T01:02:12;102154.53;;;1.44;100.00
46087;BME280;31824;49.648;8.640;2023-01-25T01:05:14;102154.25;;;1.37;100.00
46087;BME280;31824;49.648;8.640;2023-01-25T01:08:16;102157.81;;;1.43;100.00
46087;BME280;31824;49.648;8.640;2023-01-25T01:11:20;102159.94;;;1.40;100.00
46087;BME280;31824;49.648;8.640;2023-01-25T01:14:22;102149.78;;;1.36;100.00
46087;BME280;31824;49.648;8.640;2023-01-25T01:17:25;102155.91;;;1.37;100.00
46087;BME280;31824;49.648;8.640;2023-01-25T01:20:27;102154.28;;;1.43;100.00
46087;BME280;31824;49.648;8.640;2023-01-25T01:23:29;102154.69;;;1.34;100.00
46087;BME280;31824;49.648;8.640;2023-01-25T01:26:33;102155.44;;;1.39;100.00
46087;BME280;31824;49.648;8.640;2023-01-25T01:29:35;102147.69;;;1.39;100.00
46087;BME280;31824;49.648;8.640;2023-01-25T01:32:37;102153.78;;;1.40;100.00
46087;BME280;31824;49.648;8.640;2023-01-25T01:35:39;102153.56;;;1.44;100.00
46087;BME280;31824;49.648;8.640;2023-01-25T01:38:41;102150.06;;;1.43;100.00
46087;BME280;31824;49.648;8.640;2023-01-25T01:41:44;102139.88;;;1.33;100.00
46087;BME280;31824;49.648;8.640;2023-01-25T01:44:48;102140.59;;;1.38;100.00
46087;BME280;31824;49.648;8.640;2023-01-25T01:47:51;102145.56;;;1.42;100.00
46087;BME280;31824;49.648;8.640;2023-01-25T01:51:16;102143.16;;;1.32;100.00
46087;BME280;31824;49.648;8.640;2023-01-25T01:54:24;102136.56;;;1.34;100.00
46087;BME280;31824;49.648;8.640;2023-01-25T01:57:33;102138.00;;;1.38;100.00
46087;BME280;31824;49.648;8.640;2023-01-25T02:00:38;102142.94;;;1.37;100.00
46087;BME280;31824;49.648;8.640;2023-01-25T02:03:42;102142.03;;;1.36;100.00
46087;BME280;31824;49.648;8.640;2023-01-25T02:06:47;102141.47;;;1.27;100.00
46087;BME280;31824;49.648;8.640;2023-01-25T02:09:51;102138.88;;;1.27;100.00
46087;BME280;31824;49.648;8.640;2023-01-25T02:12:55;102131.88;;;1.32;100.00
46087;BME280;31824;49.648;8.640;2023-01-25T02:15:58;102147.41;;;1.32;100.00
46087;BME280;31824;49.648;8.640;2023-01-25T02:19:00;102132.31;;;1.29;100.00
46087;BME280;31824;49.648;8.640;2023-01-25T02:22:08;102142.22;;;1.32;100.00
46087;BME280;31824;49.648;8.640;2023-01-25T02:25:15;102142.88;;;1.25;100.00
46087;BME280;31824;49.648;8.640;2023-01-25T02:28:20;102125.94;;;1.27;100.00
46087;BME280;31824;49.648;8.640;2023-01-25T02:31:23;102132.25;;;1.24;100.00
46087;BME280;31824;49.648;8.640;2023-01-25T02:34:26;102126.38;;;1.25;100.00
46087;BME280;31824;49.648;8.640;2023-01-25T02:37:28;102130.44;;;1.28;100.00
46087;BME280;31824;49.648;8.640;2023-01-25T02:40:35;102125.19;;;1.17;100.00
46087;BME280;31824;49.648;8.640;2023-01-25T02:43:41;102126.13;;;1.17;100.00
46087;BME280;31824;49.648;8.640;2023-01-25T02:46:43;102127.94;;;1.13;100.00
46087;BME280;31824;49.648;8.640;2023-01-25T02:49:46;102125.66;;;1.20;100.00
46087;BME280;31824;49.648;8.640;2023-01-25T02:52:47;102128.69;;;1.17;100.00
46087;BME280;31824;49.648;8.640;2023-01-25T02:55:50;102130.38;;;1.17;100.00
46087;BME280;31824;49.648;8.640;2023-01-25T02:58:52;102128.94;;;1.19;100.00
46087;BME280;31824;49.648;8.640;2023-01-25T03:01:54;102127.56;;;1.21;100.00
46087;BME280;31824;49.648;8.640;2023-01-25T03:04:56;102126.16;;;1.23;100.00
46087;BME280;31824;49.648;8.640;2023-01-25T03:07:57;102126.34;;;1.19;100.00
46087;BME280;31824;49.648;8.640;2023-01-25T03:11:04;102121.63;;;1.16;100.00
46087;BME280;31824;49.648;8.640;2023-01-25T03:14:06;102120.91;;;1.12;100.00
46087;BME280;31824;49.648;8.640;2023-01-25T03:17:08;102108.94;;;1.18;100.00
46087;BME280;31824;49.648;8.640;2023-01-25T03:20:11;102120.00;;;1.17;100.00
46087;BME280;31824;49.648;8.640;2023-01-25T03:23:13;102110.81;;;1.19;100.00
46087;BME280;31824;49.648;8.640;2023-01-25T03:26:18;102106.34;;;1.18;100.00
46087;BME280;31824;49.648;8.640;2023-01-25T03:29:46;102106.84;;;1.21;100.00
46087;BME280;31824;49.648;8.640;2023-01-25T03:32:53;102103.06;;;1.19;100.00
46087;BME280;31824;49.648;8.640;2023-01-25T03:35:55;102106.63;;;1.25;100.00
46087;BME280;31824;49.648;8.640;2023-01-25T03:38:56;102101.16;;;1.18;100.00
46087;BME280;31824;49.648;8.640;2023-01-25T03:42:00;102104.00;;;1.20;100.00
46087;BME280;31824;49.648;8.640;2023-01-25T03:45:03;102102.06;;;1.13;100.00
46087;BME280;31824;49.648;8.640;2023-01-25T03:48:05;102107.97;;;1.12;100.00
46087;BME280;31824;49.648;8.640;2023-01-25T03:51:08;102101.38;;;1.14;100.00
46087;BME280;31824;49.648;8.640;2023-01-25T03:54:10;102109.81;;;1.13;100.00
46087;BME280;31824;49.648;8.640;2023-01-25T03:57:13;102106.75;;;1.10;100.00
46087;BME280;31824;49.648;8.640;2023-01-25T04:00:29;102103.00;;;1.08;100.00
46087;BME280;31824;49.648;8.640;2023-01-25T04:03:34;102098.72;;;1.03;100.00
46087;BME280;31824;49.648;8.640;2023-01-25T04:06:36;102091.16;;;0.98;100.00
46087;BME280;31824;49.648;8.640;2023-01-25T04:09:38;102098.72;;;1.03;100.00
46087;BME280;31824;49.648;8.640;2023-01-25T04:12:45;102104.34;;;1.00;100.00
46087;BME280;31824;49.648;8.640;2023-01-25T04:15:47;102104.81;;;1.03;100.00
46087;BME280;31824;49.648;8.640;2023-01-25T04:18:59;102101.34;;;1.08;100.00
46087;BME280;31824;49.648;8.640;2023-01-25T04:22:02;102098.75;;;1.08;100.00
46087;BME280;31824;49.648;8.640;2023-01-25T04:25:10;102095.72;;;1.11;100.00
46087;BME280;31824;49.648;8.640;2023-01-25T04:28:19;102102.69;;;1.00;100.00
46087;BME280;31824;49.648;8.640;2023-01-25T04:31:21;102098.22;;;0.99;100.00
46087;BME280;31824;49.648;8.640;2023-01-25T04:34:23;102096.06;;;0.91;100.00
46087;BME280;31824;49.648;8.640;2023-01-25T04:37:24;102089.19;;;0.86;100.00
46087;BME280;31824;49.648;8.640;2023-01-25T04:40:33;102092.53;;;0.96;100.00
46087;BME280;31824;49.648;8.640;2023-01-25T04:43:36;102085.28;;;0.99;100.00
46087;BME280;31824;49.648;8.640;2023-01-25T04:46:42;102094.38;;;0.86;100.00
46087;BME280;31824;49.648;8.640;2023-01-25T04:49:44;102090.38;;;0.88;100.00
46087;BME280;31824;49.648;8.640;2023-01-25T04:52:47;102089.06;;;1.01;100.00
46087;BME280;31824;49.648;8.640;2023-01-25T04:55:50;102084.63;;;1.06;100.00
46087;BME280;31824;49.648;8.640;2023-01-25T04:58:53;102088.84;;;1.06;100.00
46087;BME280;31824;49.648;8.640;2023-01-25T05:01:55;102081.56;;;1.09;100.00
46087;BME280;31824;49.648;8.640;2023-01-25T05:04:57;102077.09;;;1.08;100.00
46087;BME280;31824;49.648;8.640;2023-01-25T05:08:01;102082.25;;;1.02;100.00
46087;BME280;31824;49.648;8.640;2023-01-25T05:11:03;102077.09;;;1.08;100.00
46087;BME280;31824;49.648;8.640;2023-01-25T05:14:25;102079.19;;;1.05;100.00
46087;BME280;31824;49.648;8.640;2023-01-25T05:17:27;102070.50;;;1.04;100.00
46087;BME280;31824;49.648;8.640;2023-01-25T05:20:29;102063.16;;;1.01;100.00
46087;BME280;31824;49.648;8.640;2023-01-25T05:23:30;102054.44;;;0.95;100.00
46087;BME280;31824;49.648;8.640;2023-01-25T05:26:32;102050.91;;;1.00;100.00
46087;BME280;31824;49.648;8.640;2023-01-25T05:29:55;102042.47;;;1.01;100.00
46087;BME280;31824;49.648;8.640;2023-01-25T05:33:04;102040.84;;;1.02;100.00
46087;BME280;31824;49.648;8.640;2023-01-25T05:36:07;102035.56;;;0.91;100.00
46087;BME280;31824;49.648;8.640;2023-01-25T05:39:11;102029.47;;;0.90;100.00
46087;BME280;31824;49.648;8.640;2023-01-25T05:42:15;102022.63;;;0.91;100.00
46087;BME280;31824;49.648;8.640;2023-01-25T05:45:19;102027.78;;;0.85;100.00
46087;BME280;31824;49.648;8.640;2023-01-25T05:48:21;102026.84;;;0.84;100.00
46087;BME280;31824;49.648;8.640;2023-01-25T05:51:23;102032.75;;;0.89;100.00
46087;BME280;31824;49.648;8.640;2023-01-25T05:54:25;102031.41;;;0.97;100.00
46087;BME280;31824;49.648;8.640;2023-01-25T05:57:34;102023.88;;;0.98;100.00
46087;BME280;31824;49.648;8.640;2023-01-25T06:00:38;102021.28;;;0.98;100.00
46087;BME280;31824;49.648;8.640;2023-01-25T06:03:40;102026.22;;;0.97;100.00
46087;BME280;31824;49.648;8.640;2023-01-25T06:06:42;102026.66;;;0.94;100.00
46087;BME280;31824;49.648;8.640;2023-01-25T06:09:43;102025.97;;;0.95;100.00
46087;BME280;31824;49.648;8.640;2023-01-25T06:12:45;102023.31;;;0.90;100.00
46087;BME280;31824;49.648;8.640;2023-01-25T06:16:08;102028.06;;;0.92;100.00
46087;BME280;31824;49.648;8.640;2023-01-25T06:19:16;102033.22;;;0.92;100.00
46087;BME280;31824;49.648;8.640;2023-01-25T06:22:41;102037.03;;;0.94;100.00
46087;BME280;31824;49.648;8.640;2023-01-25T06:25:43;102040.31;;;0.93;100.00
46087;BME280;31824;49.648;8.640;2023-01-25T06:28:44;102036.56;;;0.97;100.00
46087;BME280;31824;49.648;8.640;2023-01-25T06:31:47;102037.00;;;0.89;100.00
46087;BME280;31824;49.648;8.640;2023-01-25T06:34:49;102037.69;;;0.88;100.00
46087;BME280;31824;49.648;8.640;2023-01-25T06:37:54;102034.47;;;1.00;100.00
46087;BME280;31824;49.648;8.640;2023-01-25T06:41:00;102033.75;;;0.95;100.00
46087;BME280;31824;49.648;8.640;2023-01-25T06:44:02;102045.03;;;0.96;100.00
46087;BME280;31824;49.648;8.640;2023-01-25T06:47:07;102035.13;;;0.93;100.00
46087;BME280;31824;49.648;8.640;2023-01-25T06:50:09;102030.44;;;0.96;100.00
46087;BME280;31824;49.648;8.640;2023-01-25T06:53:11;102021.72;;;0.90;100.00
46087;BME280;31824;49.648;8.640;2023-01-25T06:56:14;102025.00;;;0.95;100.00
46087;BME280;31824;49.648;8.640;2023-01-25T06:59:18;102016.78;;;0.97;100.00
46087;BME280;31824;49.648;8.640;2023-01-25T07:02:21;102027.16;;;0.97;100.00
46087;BME280;31824;49.648;8.640;2023-01-25T07:05:22;102022.19;;;0.93;100.00
46087;BME280;31824;49.648;8.640;2023-01-25T07:08:24;102017.91;;;0.88;100.00
46087;BME280;31824;49.648;8.640;2023-01-25T07:11:26;102015.31;;;0.88;100.00
46087;BME280;31824;49.648;8.640;2023-01-25T07:14:28;102026.19;;;0.91;100.00
46087;BME280;31824;49.648;8.640;2023-01-25T07:17:31;102020.28;;;0.92;100.00
46087;BME280;31824;49.648;8.640;2023-01-25T07:20:33;102022.66;;;0.96;100.00
46087;BME280;31824;49.648;8.640;2023-01-25T07:23:34;102019.38;;;0.97;100.00
46087;BME280;31824;49.648;8.640;2023-01-25T07:26:38;102023.31;;;0.90;100.00
46087;BME280;31824;49.648;8.640;2023-01-25T07:29:39;102022.63;;;0.91;100.00
46087;BME280;31824;49.648;8.640;2023-01-25T07:32:43;102017.91;;;0.88;100.00
46087;BME280;31824;49.648;8.640;2023-01-25T07:35:44;102020.06;;;0.91;100.00
46087;BME280;31824;49.648;8.640;2023-01-25T07:38:46;102026.44;;;0.93;100.00
46087;BME280;31824;49.648;8.640;2023-01-25T07:41:48;102023.41;;;0.95;100.00
46087;BME280;31824;49.648;8.640;2023-01-25T07:44:52;102020.75;;;0.90;100.00
46087;BME280;31824;49.648;8.640;2023-01-25T07:47:56;102030.44;;;0.96;100.00
46087;BME280;31824;49.648;8.640;2023-01-25T07:50:58;102025.72;;;0.94;100.00
46087;BME280;31824;49.648;8.640;2023-01-25T07:54:12;102024.31;;;0.96;100.00
46087;BME280;31824;49.648;8.640;2023-01-25T07:57:14;102022.41;;;0.89;100.00
46087;BME280;31824;49.648;8.640;2023-01-25T08:00:16;102018.72;;;1.04;100.00
46087;BME280;31824;49.648;8.640;2023-01-25T08:03:19;102023.88;;;0.98;100.00
46087;BME280;31824;49.648;8.640;2023-01-25T08:06:23;102024.56;;;0.97;100.00
46087;BME280;31824;49.648;8.640;2023-01-25T08:09:27;102026.94;;;1.01;100.00
46087;BME280;31824;49.648;8.640;2023-01-25T08:12:29;102028.84;;;1.03;100.00
46087;BME280;31824;49.648;8.640;2023-01-25T08:15:31;102023.88;;;0.98;100.00
46087;BME280;31824;49.648;8.640;2023-01-25T08:18:34;102021.03;;;0.97;100.00
46087;BME280;31824;49.648;8.640;2023-01-25T08:21:37;102023.22;;;1.05;100.00
46087;BME280;31824;49.648;8.640;2023-01-25T08:24:39;102014.41;;;0.93;100.00
46087;BME280;31824;49.648;8.640;2023-01-25T08:27:41;102021.53;;;1.00;100.00
46087;BME280;31824;49.648;8.640;2023-01-25T08:31:06;102016.63;;;1.07;100.00
46087;BME280;31824;49.648;8.640;2023-01-25T08:34:10;102010.94;;;0.98;100.00
46087;BME280;31824;49.648;8.640;2023-01-25T08:37:12;102010.97;;;1.04;100.00
46087;BME280;31824;49.648;8.640;2023-01-25T08:40:14;102002.94;;;1.03;100.00
46087;BME280;31824;49.648;8.640;2023-01-25T08:43:16;102004.19;;;1.10;100.00
46087;BME280;31824;49.648;8.640;2023-01-25T08:46:18;101998.94;;;1.05;100.00
46087;BME280;31824;49.648;8.640;2023-01-25T08:49:21;101997.50;;;0.95;100.00
46087;BME280;31824;49.648;8.640;2023-01-25T08:52:23;102000.38;;;1.03;100.00
46087;BME280;31824;49.648;8.640;2023-01-25T08:55:25;101999.69;;;1.09;100.00
46087;BME280;31824;49.648;8.640;2023-01-25T08:58:26;101995.69;;;1.11;100.00
46087;BME280;31824;49.648;8.640;2023-01-25T09:01:28;101999.22;;;1.06;100.00
46087;BME280;31824;49.648;8.640;2023-01-25T09:04:31;101986.41;;;0.91;100.00
46087;BME280;31824;49.648;8.640;2023-01-25T09:07:33;101995.41;;;0.98;100.00
46087;BME280;31824;49.648;8.640;2023-01-25T09:10:38;101988.16;;;1.13;100.00
46087;BME280;31824;49.648;8.640;2023-01-25T09:13:40;101989.59;;;1.11;100.00
46087;BME280;31824;49.648;8.640;2023-01-25T09:16:44;101988.28;;;0.86;100.00
46087;BME280;31824;49.648;8.640;2023-01-25T09:19:47;101986.63;;;0.87;100.00
46087;BME280;31824;49.648;8.640;2023-01-25T09:22:54;101990.88;;;0.86;100.00
46087;BME280;31824;49.648;8.640;2023-01-25T09:25:56;101986.38;;;0.85;100.00
46087;BME280;31824;49.648;8.640;2023-01-25T09:28:58;101991.06;;;0.76;100.00
46087;BME280;31824;49.648;8.640;2023-01-25T09:32:00;101996.47;;;0.78;100.00
46087;BME280;31824;49.648;8.640;2023-01-25T09:35:07;101996.94;;;0.81;100.00
46087;BME280;31824;49.648;8.640;2023-01-25T09:38:28;101993.97;;;1.00;100.00
46087;BME280;31824;49.648;8.640;2023-01-25T09:41:41;101985.50;;;0.96;100.00
46087;BME280;31824;49.648;8.640;2023-01-25T09:45:04;101983.78;;;0.85;100.00
46087;BME280;31824;49.648;8.640;2023-01-25T09:48:17;101992.81;;;0.98;100.00
46087;BME280;31824;49.648;8.640;2023-01-25T09:51:25;101989.75;;;0.95;100.00
46087;BME280;31824;49.648;8.640;2023-01-25T09:54:35;101991.94;;;1.09;100.00
46087;BME280;31824;49.648;8.640;2023-01-25T09:57:48;101980.41;;;1.13;100.00
46087;BME280;31824;49.648;8.640;2023-01-25T10:01:02;101975.91;;;1.06;100.00
46087;BME280;31824;49.648;8.640;2023-01-25T10:04:17;101979.66;;;1.03;100.00
46087;BME280;31824;49.648;8.640;2023-01-25T10:07:24;101976.50;;;0.88;100.00
46087;BME280;31824;49.648;8.640;2023-01-25T10:10:32;101974.00;;;0.99;100.00
46087;BME280;31824;49.648;8.640;2023-01-25T10:13:35;101974.06;;;1.11;100.00
46087;BME280;31824;49.648;8.640;2023-01-25T10:16:44;101970.97;;;1.02;100.00
46087;BME280;31824;49.648;8.640;2023-01-25T10:20:07;101969.28;;;0.97;100.00
46087;BME280;31824;49.648;8.640;2023-01-25T10:26:55;101966.28;;;1.11;100.00
46087;BME280;31824;49.648;8.640;2023-01-25T10:30:01;101964.41;;;1.15;100.00
46087;BME280;31824;49.648;8.640;2023-01-25T10:33:10;101952.34;;;0.99;100.00
46087;BME280;31824;49.648;8.640;2023-01-25T10:36:15;101945.59;;;1.22;100.00
46087;BME280;31824;49.648;8.640;2023-01-25T10:39:18;101943.19;;;1.01;100.00
46087;BME280;31824;49.648;8.640;2023-01-25T10:42:24;101938.03;;;1.12;100.00
46087;BME280;31824;49.648;8.640;2023-01-25T10:45:27;101928.38;;;1.11;100.00
46087;BME280;31824;49.648;8.640;2023-01-25T10:48:32;101928.44;;;1.17;100.00
46087;BME280;31824;49.648;8.640;2023-01-25T10:51:34;101917.56;;;1.14;100.00
46087;BME280;31824;49.648;8.640;2023-01-25T10:55:12;101912.41;;;1.14;100.00
46087;BME280;31824;49.648;8.640;2023-01-25T10:58:30;101904.63;;;1.14;100.00
46087;BME280;31824;49.648;8.640;2023-01-25T11:01:34;101906.09;;;1.29;100.00
46087;BME280;31824;49.648;8.640;2023-01-25T11:04:36;101896.22;;;1.32;100.00
46087;BME280;31824;49.648;8.640;2023-01-25T11:07:39;101886.34;;;1.46;100.00
46087;BME280;31824;49.648;8.640;2023-01-25T11:10:42;101884.00;;;1.37;100.00
46087;BME280;31824;49.648;8.640;2023-01-25T11:13:46;101880.72;;;1.38;100.00
46087;BME280;31824;49.648;8.640;2023-01-25T11:16:48;101874.78;;;1.27;100.00
46087;BME280;31824;49.648;8.640;2023-01-25T11:20:06;101864.44;;;1.39;100.00
46087;BME280;31824;49.648;8.640;2023-01-25T11:23:21;101861.38;;;1.41;100.00
46087;BME280;31824;49.648;8.640;2023-01-25T11:26:23;101859.47;;;1.29;100.00
46087;BME280;31824;49.648;8.640;2023-01-25T11:29:26;101851.03;;;1.41;100.00
46087;BME280;31824;49.648;8.640;2023-01-25T11:32:28;101844.22;;;1.36;100.00
46087;BME280;31824;49.648;8.640;2023-01-25T11:35:32;101842.09;;;1.39;100.00
46087;BME280;31824;49.648;8.640;2023-01-25T11:38:36;101840.19;;;1.32;100.00
46087;BME280;31824;49.648;8.640;2023-01-25T11:41:52;101830.53;;;1.43;100.00
46087;BME280;31824;49.648;8.640;2023-01-25T11:45:14;101822.78;;;1.43;100.00
46087;BME280;31824;49.648;8.640;2023-01-25T11:48:30;101823.72;;;1.55;100.00
46087;BME280;31824;49.648;8.640;2023-01-25T11:51:49;101818.09;;;1.40;100.00
46087;BME280;31824;49.648;8.640;2023-01-25T11:54:58;101818.28;;;1.30;100.00
46087;BME280;31824;49.648;8.640;2023-01-25T11:58:12;101803.72;;;1.59;100.00
46087;BME280;31824;49.648;8.640;2023-01-25T12:01:21;101803.97;;;1.55;100.00
46087;BME280;31824;49.648;8.640;2023-01-25T12:04:59;101793.59;;;1.32;100.00
46087;BME280;31824;49.648;8.640;2023-01-25T12:08:36;101782.06;;;1.47;100.00
46087;BME280;31824;49.648;8.640;2023-01-25T12:11:51;101784.88;;;1.49;100.00
46087;BME280;31824;49.648;8.640;2023-01-25T12:15:13;101776.38;;;1.39;100.00
46087;BME280;31824;49.648;8.640;2023-01-25T12:18:29;101773.84;;;1.44;100.00
46087;BME280;31824;49.648;8.640;2023-01-25T12:21:45;101761.13;;;1.40;100.00
46087;BME280;31824;49.648;8.640;2023-01-25T12:24:59;101753.09;;;1.61;100.00
46087;BME280;31824;49.648;8.640;2023-01-25T12:28:11;101738.72;;;1.69;100.00
46087;BME280;31824;49.648;8.640;2023-01-25T12:31:18;101727.44;;;1.46;100.00
46087;BME280;31824;49.648;8.640;2023-01-25T12:34:29;101718.00;;;1.46;100.00
46087;BME280;31824;49.648;8.640;2023-01-25T12:37:36;101711.19;;;1.52;100.00
46087;BME280;31824;49.648;8.640;2023-01-25T12:40:47;101712.56;;;1.56;100.00
46087;BME280;31824;49.648;8.640;2023-01-25T12:43:53;101702.47;;;1.52;100.00
46087;BME280;31824;49.648;8.640;2023-01-25T12:47:01;101704.38;;;1.36;100.00
46087;BME280;31824;49.648;8.640;2023-01-25T12:50:14;101702.03;;;1.38;100.00
46087;BME280;31824;49.648;8.640;2023-01-25T12:53:20;101689.78;;;1.42;100.00
46087;BME280;31824;49.648;8.640;2023-01-25T12:56:30;101685.06;;;1.51;100.00
46087;BME280;31824;49.648;8.640;2023-01-25T12:59:41;101678.25;;;1.40;100.00
46087;BME280;31824;49.648;8.640;2023-01-25T13:02:53;101672.34;;;1.35;100.00
46087;BME280;31824;49.648;8.640;2023-01-25T13:06:09;101678.97;;;1.33;100.00
46087;BME280;31824;49.648;8.640;2023-01-25T13:09:19;101676.81;;;1.42;100.00
46087;BME280;31824;49.648;8.640;2023-01-25T13:12:24;101674.69;;;1.40;100.00
46087;BME280;31824;49.648;8.640;2023-01-25T13:15:37;101680.81;;;1.51;100.00
46087;BME280;31824;49.648;8.640;2023-01-25T13:18:40;101673.78;;;1.39;100.00
46087;BME280;31824;49.648;8.640;2023-01-25T13:21:45;101670.22;;;1.50;100.00
46087;BME280;31824;49.648;8.640;2023-01-25T13:25:07;101666.72;;;1.32;100.00
46087;BME280;31824;49.648;8.640;2023-01-25T13:28:41;101660.53;;;1.60;100.00
46087;BME280;31824;49.648;8.640;2023-01-25T13:31:44;101665.72;;;1.60;100.00
46087;BME280;31824;49.648;8.640;2023-01-25T13:34:58;101654.91;;;1.57;100.00
46087;BME280;31824;49.648;8.640;2023-01-25T13:38:05;101647.56;;;1.60;100.00
46087;BME280;31824;49.648;8.640;2023-01-25T13:41:17;101642.41;;;1.60;100.00
46087;BME280;31824;49.648;8.640;2023-01-25T13:44:22;101633.69;;;1.65;100.00
46087;BME280;31824;49.648;8.640;2023-01-25T13:47:31;101621.50;;;1.42;100.00
46087;BME280;31824;49.648;8.640;2023-01-25T13:50:35;101619.66;;;1.35;100.00
46087;BME280;31824;49.648;8.640;2023-01-25T13:53:41;101608.78;;;1.49;100.00
46087;BME280;31824;49.648;8.640;2023-01-25T13:57:02;101602.66;;;1.48;100.00
46087;BME280;31824;49.648;8.640;2023-01-25T14:00:12;101607.81;;;1.54;100.00
46087;BME280;31824;49.648;8.640;2023-01-25T14:03:15;101602.16;;;1.57;100.00
46087;BME280;31824;49.648;8.640;2023-01-25T14:06:19;101598.63;;;1.50;100.00
46087;BME280;31824;49.648;8.640;2023-01-25T14:09:23;101595.34;;;1.51;100.00
46087;BME280;31824;49.648;8.640;2023-01-25T14:12:32;101589.88;;;1.61;100.00
46087;BME280;31824;49.648;8.640;2023-01-25T14:15:35;101591.38;;;1.37;100.00
46087;BME280;31824;49.648;8.640;2023-01-25T14:18:37;101591.56;;;1.49;100.00
46087;BME280;31824;49.648;8.640;2023-01-25T14:21:39;101583.31;;;1.52;100.00
46087;BME280;31824;49.648;8.640;2023-01-25T14:24:42;101587.59;;;1.46;100.00
46087;BME280;31824;49.648;8.640;2023-01-25T14:27:46;101574.94;;;1.19;100.00
46087;BME280;31824;49.648;8.640;2023-01-25T14:30:50;101572.56;;;1.38;100.00
46087;BME280;31824;49.648;8.640;2023-01-25T14:33:53;101568.81;;;1.24;100.00
46087;BME280;31824;49.648;8.640;2023-01-25T14:37:05;101563.09;;;1.44;100.00
46087;BME280;31824;49.648;8.640;2023-01-25T14:40:11;101563.09;;;1.49;100.00
46087;BME280;31824;49.648;8.640;2023-01-25T14:43:14;101563.81;;;1.43;100.00
46087;BME280;31824;49.648;8.640;2023-01-25T14:46:26;101557.53;;;1.29;100.00
46087;BME280;31824;49.648;8.640;2023-01-25T14:49:29;101553.50;;;1.31;100.00
46087;BME280;31824;49.648;8.640;2023-01-25T14:52:30;101557.94;;;1.38;100.00
46087;BME280;31824;49.648;8.640;2023-01-25T14:55:34;101554.88;;;1.41;100.00
46087;BME280;31824;49.648;8.640;2023-01-25T14:58:37;101551.63;;;1.30;100.00
46087;BME280;31824;49.648;8.640;2023-01-25T15:01:40;101537.94;;;1.37;100.00
46087;BME280;31824;49.648;8.640;2023-01-25T15:04:51;101534.41;;;1.42;100.00
46087;BME280;31824;49.648;8.640;2023-01-25T15:07:54;101526.38;;;1.46;100.00
46087;BME280;31824;49.648;8.640;2023-01-25T15:10:58;101531.16;;;1.32;100.00
46087;BME280;31824;49.648;8.640;2023-01-25T15:14:20;101521.97;;;1.28;100.00
46087;BME280;31824;49.648;8.640;2023-01-25T15:17:36;101510.91;;;1.29;100.00
46087;BME280;31824;49.648;8.640;2023-01-25T15:20:40;101505.25;;;1.26;100.00
46087;BME280;31824;49.648;8.640;2023-01-25T15:23:43;101503.16;;;1.29;100.00
46087;BME280;31824;49.648;8.640;2023-01-25T15:26:50;101508.09;;;1.33;100.00
46087;BME280;31824;49.648;8.640;2023-01-25T15:29:52;101501.03;;;1.32;100.00
46087;BME280;31824;49.648;8.640;2023-01-25T15:32:54;101501.31;;;1.17;100.00
46087;BME280;31824;49.648;8.640;2023-01-25T15:35:57;101488.38;;;1.17;100.00
46087;BME280;31824;49.648;8.640;2023-01-25T15:38:59;101490.44;;;1.31;100.00
46087;BME280;31824;49.648;8.640;2023-01-25T15:42:02;101487.16;;;1.21;100.00
46087;BME280;31824;49.648;8.640;2023-01-25T15:45:06;101491.13;;;1.30;100.00
46087;BME280;31824;49.648;8.640;2023-01-25T15:48:12;101482.91;;;1.32;100.00
46087;BME280;31824;49.648;8.640;2023-01-25T15:51:15;101481.72;;;1.30;100.00
46087;BME280;31824;49.648;8.640;2023-01-25T15:54:17;101485.47;;;1.32;100.00
46087;BME280;31824;49.648;8.640;2023-01-25T15:57:26;101476.09;;;1.27;100.00
46087;BME280;31824;49.648;8.640;2023-01-25T16:00:29;101478.22;;;1.24;100.00
46087;BME280;31824;49.648;8.640;2023-01-25T16:03:31;101477.75;;;1.27;100.00
46087;BME280;31824;49.648;8.640;2023-01-25T16:06:36;101479.84;;;1.24;100.00
46087;BME280;31824;49.648;8.640;2023-01-25T16:09:41;101479.44;;;1.15;100.00
46087;BME280;31824;49.648;8.640;2023-01-25T16:12:44;101488.59;;;1.24;100.00
46087;BME280;31824;49.648;8.640;2023-01-25T16:15:48;101485.53;;;1.15;100.00